Pollock, Mississippi
Current Conditions -  °F | °C
As of 8:53 AM on Sunday 23 Nov 2014 (Local Time) from KGLH Reporting Station
Haze Haze  
Wind Chill: 60°   Ceiling: 500
Heat Index: 60°   Visibility: 4mi
Dew Point: 59°   Wind: 9mph
Humidity: 96%   Direction: 100°E
Pressure: 29.6"   Gusts: NA
Location:  33.4825°N, 90.6856°W
Report Text: KGLH 231453Z AUTO 10008KT 4SM BR BKN005 OVC018 16/15 A2960 RMK AO2 SLP030 P0020 60029 T01560150 56034
Loading
Personal Weather Stations






























Interactive Weather Map New forecast layout! Learn more

10-Day Weather Forecast

Advertisements
Track Severe Weather on mobile